Pagina principale
METAR-TAF:

METAR-TAF

Aeroporti :

Aeroporto di Parma

Parma, Italia

latitudine: 44-49-17N, longitudine: 010-17-41E, altezza: 50 m

Osservazione

Il bollettino è stato emesso 3 ore e 31 minuti fa, alle 20:50 UTC
Vento 2 kt da direzioni variabili
Temperature 16°C
Umidità 68%
Pressione 1008 hPa
Visibilità 10 km o più
Nuvoloso ad un'altezza di 3000 ft

METAR: LIMP 152050Z VRB02KT 9999 BKN030 16/10 Q1008

Ora: 02:21 (00:21 UTC)

Previsione

Il bollettino è stato emesso 7 ore e 21 minuti fa, alle 17:00 UTC
Previsione valida dal 15 alle 18 UTC al 16 alle 18 UTC
Vento 14 kt da sud-ovest
Visibilità 10 km o più
Poco nuvoloso ad un'altezza di 3000 ft
Evoluzione graduale
dal 15 alle 20 UTC al 15 alle 22 UTC
Vento 5 kt da direzioni variabili

TAF: LIMP 151700Z 1518/1618 23014KT 9999 FEW030 BECMG 1520/1522 VRB05KT

Osservazioni e previsioni meteorologiche di più di 4000 aeroporti (messaggi METAR e TAF).

Le stazioni disponibili sono rappresentate dai dischi gialli e rossi sulla carta.

Puntare il mouse per vedere il nome della stazione.

Clicca sopra per visualizzare le osservazioni e previsioni meteorologiche.

Per cambiare la mappa : fare clic sui pulsanti verdi con una croce nera per ingrandire, il pulsante verde con un trattino per diminuire, o sulla freccia verde per le mappe adiacenti.


METAR-TAF: